createdAt,value
2022-11-20T00:00:32.644Z,5.60
2022-11-20T00:03:00.588Z,5.70
2022-11-20T00:05:35.828Z,5.60
2022-11-20T00:08:03.908Z,5.70
2022-11-20T00:10:32.134Z,5.60
2022-11-20T00:13:00.591Z,5.50
2022-11-20T00:15:30.091Z,5.40
2022-11-20T00:18:00.220Z,5.30
2022-11-20T00:20:28.686Z,5.30
2022-11-20T00:22:55.555Z,5.40
2022-11-20T00:25:25.881Z,5.30
2022-11-20T00:27:52.731Z,5.30
2022-11-20T00:30:20.694Z,5.40
2022-11-20T00:32:48.589Z,5.50
2022-11-20T00:35:21.418Z,5.50
2022-11-20T00:37:50.283Z,5.50
2022-11-20T00:40:17.190Z,5.40
2022-11-20T00:42:45.285Z,5.40
2022-11-20T00:45:13.113Z,5.30
2022-11-20T00:47:43.896Z,5.20
2022-11-20T00:50:12.041Z,5.30
2022-11-20T00:52:46.278Z,5.20
2022-11-20T00:55:14.216Z,5.30
2022-11-20T00:57:45.169Z,5.40
2022-11-20T01:00:16.070Z,5.20
2022-11-20T01:02:43.376Z,4.90
2022-11-20T01:05:11.435Z,4.70
2022-11-20T01:07:40.584Z,4.60
2022-11-20T01:10:09.000Z,4.80
2022-11-20T01:12:35.835Z,5.00
2022-11-20T01:15:02.811Z,5.10
2022-11-20T01:17:32.652Z,5.20
2022-11-20T01:20:01.601Z,5.40
2022-11-20T01:22:30.565Z,5.40
2022-11-20T01:24:58.458Z,5.50
2022-11-20T01:27:28.798Z,5.40
2022-11-20T01:30:00.975Z,5.40
2022-11-20T01:32:29.279Z,5.40
2022-11-20T01:34:57.220Z,5.50
2022-11-20T01:37:24.132Z,5.30
2022-11-20T01:39:50.990Z,5.30
2022-11-20T01:42:37.335Z,5.30
2022-11-20T01:45:44.057Z,5.40
2022-11-20T01:48:13.136Z,5.40
2022-11-20T01:50:43.442Z,5.40
2022-11-20T01:53:15.913Z,5.50
2022-11-20T01:55:55.916Z,5.60
2022-11-20T01:58:31.772Z,5.50
2022-11-20T02:01:05.023Z,5.50
2022-11-20T02:03:34.101Z,5.50
2022-11-20T02:06:26.369Z,5.50
2022-11-20T02:08:54.468Z,5.40
2022-11-20T02:11:23.182Z,5.50
2022-11-20T02:13:53.026Z,5.50
2022-11-20T02:16:31.176Z,5.60
2022-11-20T02:19:01.451Z,5.60
2022-11-20T02:21:57.171Z,5.50
2022-11-20T02:24:28.955Z,5.40
2022-11-20T02:27:10.212Z,5.20
2022-11-20T02:29:47.410Z,5.20
2022-11-20T02:32:28.109Z,5.30
2022-11-20T02:34:57.712Z,5.00
2022-11-20T02:37:33.676Z,5.00
2022-11-20T02:40:01.720Z,5.20
2022-11-20T02:42:28.688Z,5.10
2022-11-20T02:44:56.550Z,5.20
2022-11-20T02:47:26.593Z,5.10
2022-11-20T02:50:19.765Z,5.20
2022-11-20T02:52:50.325Z,5.00
2022-11-20T02:55:23.474Z,4.80
2022-11-20T02:58:17.731Z,4.70
2022-11-20T03:00:47.716Z,4.80
2022-11-20T03:03:15.884Z,4.90
2022-11-20T03:05:45.961Z,4.90
2022-11-20T03:08:13.172Z,4.90
2022-11-20T03:10:43.259Z,4.90
2022-11-20T03:13:10.415Z,5.10
2022-11-20T03:15:38.252Z,5.20
2022-11-20T03:18:06.306Z,5.20
2022-11-20T03:20:34.919Z,5.30
2022-11-20T03:23:05.693Z,5.30
2022-11-20T03:25:33.580Z,5.30
2022-11-20T03:28:03.496Z,5.20
2022-11-20T03:30:31.611Z,5.20
2022-11-20T03:32:59.542Z,5.20
2022-11-20T03:35:27.009Z,5.20
2022-11-20T03:37:55.956Z,5.30
2022-11-20T03:40:24.148Z,5.30
2022-11-20T03:42:57.349Z,5.40
2022-11-20T03:45:24.246Z,5.30
2022-11-20T03:47:53.265Z,5.30
2022-11-20T03:50:23.684Z,5.20
2022-11-20T03:52:52.616Z,5.20
2022-11-20T03:55:20.445Z,5.20
2022-11-20T03:57:49.452Z,5.30
2022-11-20T04:00:18.536Z,5.20
2022-11-20T04:02:46.406Z,5.20
2022-11-20T04:05:18.055Z,5.30
2022-11-20T04:07:49.624Z,5.40
2022-11-20T04:10:22.549Z,5.30
2022-11-20T04:13:14.368Z,5.10
2022-11-20T04:15:42.361Z,5.10
2022-11-20T04:18:10.134Z,5.10
2022-11-20T04:20:38.762Z,5.20
2022-11-20T04:23:08.649Z,5.30
2022-11-20T04:25:35.522Z,5.40
2022-11-20T04:28:05.474Z,5.30
2022-11-20T04:30:34.473Z,5.20
2022-11-20T04:33:02.408Z,5.00
2022-11-20T04:35:31.542Z,5.10
2022-11-20T04:38:02.273Z,5.10
2022-11-20T04:40:49.467Z,5.10
2022-11-20T04:43:21.211Z,5.00
2022-11-20T04:45:52.152Z,5.00
2022-11-20T04:48:22.394Z,5.10
2022-11-20T04:50:52.977Z,5.00
2022-11-20T04:53:25.349Z,5.00
2022-11-20T04:56:01.476Z,4.90
2022-11-20T04:58:30.501Z,4.80
2022-11-20T05:01:08.134Z,4.80
2022-11-20T05:03:39.813Z,4.80
2022-11-20T05:06:14.171Z,4.90
2022-11-20T05:08:44.989Z,4.90
2022-11-20T05:11:20.993Z,4.90
2022-11-20T05:13:52.719Z,4.90
2022-11-20T05:16:25.120Z,5.00
2022-11-20T05:23:46.431Z,5.00
2022-11-20T05:26:20.332Z,4.90
2022-11-20T05:28:57.502Z,5.00
2022-11-20T05:31:28.799Z,5.00
2022-11-20T05:33:57.520Z,5.00
2022-11-20T05:36:30.880Z,5.00
2022-11-20T05:39:01.991Z,5.10
2022-11-20T05:41:32.045Z,5.10
2022-11-20T05:44:22.883Z,5.10
2022-11-20T05:47:41.069Z,5.10
2022-11-20T05:51:25.918Z,5.00
2022-11-20T05:53:59.672Z,5.00
2022-11-20T05:56:28.614Z,5.00
2022-11-20T05:58:57.769Z,4.90
2022-11-20T06:01:27.376Z,4.90
2022-11-20T06:03:55.983Z,4.90
2022-11-20T06:06:23.084Z,4.90
2022-11-20T06:08:50.331Z,5.00
2022-11-20T06:11:19.036Z,5.00
2022-11-20T06:13:49.184Z,4.90
2022-11-20T06:16:21.008Z,5.00
2022-11-20T06:18:55.356Z,4.90
2022-11-20T06:21:25.859Z,4.90
2022-11-20T06:23:53.655Z,4.90
2022-11-20T06:26:27.584Z,4.90
2022-11-20T06:28:58.540Z,4.90
2022-11-20T06:31:30.473Z,5.00
2022-11-20T06:33:59.834Z,4.90
2022-11-20T06:36:41.070Z,4.90
2022-11-20T06:39:09.060Z,5.00
2022-11-20T06:41:39.440Z,5.00
2022-11-20T06:44:09.551Z,5.00
2022-11-20T06:46:36.595Z,5.00
2022-11-20T06:49:09.734Z,5.00
2022-11-20T06:51:45.341Z,5.00
2022-11-20T06:54:14.718Z,5.10
2022-11-20T06:56:41.987Z,5.20
2022-11-20T06:59:12.864Z,5.30
2022-11-20T07:01:42.873Z,5.20
2022-11-20T07:04:10.767Z,5.20
2022-11-20T07:06:37.716Z,5.30
2022-11-20T07:09:11.391Z,5.30
2022-11-20T07:11:44.328Z,5.30
2022-11-20T07:14:12.204Z,5.30
2022-11-20T07:16:39.006Z,5.30
2022-11-20T07:19:08.015Z,5.30
2022-11-20T07:21:36.984Z,5.40
2022-11-20T07:24:18.332Z,5.40
2022-11-20T07:26:50.176Z,5.40
2022-11-20T07:29:20.712Z,5.50
2022-11-20T07:31:51.031Z,5.60
2022-11-20T07:34:44.919Z,5.60
2022-11-20T07:37:15.854Z,5.70
2022-11-20T07:39:43.994Z,5.70
2022-11-20T07:42:13.106Z,5.70
2022-11-20T07:44:43.378Z,5.70
2022-11-20T07:47:13.789Z,5.70
2022-11-20T07:49:44.349Z,5.70
2022-11-20T07:52:11.301Z,5.80
2022-11-20T07:54:39.278Z,5.80
2022-11-20T07:57:09.145Z,5.80
2022-11-20T07:59:35.992Z,5.90
2022-11-20T08:02:03.949Z,5.90
2022-11-20T08:04:31.003Z,5.90
2022-11-20T08:06:59.039Z,6.00
2022-11-20T08:09:26.313Z,6.10
2022-11-20T08:12:13.795Z,6.10
2022-11-20T08:14:43.784Z,6.10
2022-11-20T08:17:11.358Z,6.10
2022-11-20T08:19:41.401Z,6.20
2022-11-20T08:22:09.303Z,6.40
2022-11-20T08:24:37.238Z,6.30
2022-11-20T08:27:05.227Z,6.40
2022-11-20T08:29:34.077Z,6.40
2022-11-20T08:32:04.736Z,6.40
2022-11-20T08:34:31.774Z,6.40
2022-11-20T08:36:59.033Z,6.50
2022-11-20T08:39:29.274Z,6.40
2022-11-20T08:41:56.256Z,6.40
2022-11-20T08:44:26.190Z,6.40
2022-11-20T08:46:55.136Z,6.40
2022-11-20T08:49:24.418Z,6.50
2022-11-20T08:51:56.199Z,6.40
2022-11-20T08:54:23.810Z,6.50
2022-11-20T09:00:04.516Z,6.60
2022-11-20T09:02:23.123Z,6.70
2022-11-20T09:04:50.004Z,6.70
2022-11-20T09:07:17.219Z,6.70
2022-11-20T09:09:44.203Z,6.80
2022-11-20T09:12:11.004Z,6.80
2022-11-20T09:14:38.073Z,6.80
2022-11-20T09:17:04.888Z,6.80
2022-11-20T09:19:36.038Z,6.80
2022-11-20T09:22:03.610Z,6.90
2022-11-20T09:24:32.752Z,7.00
2022-11-20T09:27:02.320Z,7.00
2022-11-20T09:29:29.372Z,7.00
2022-11-20T09:31:57.099Z,7.00
2022-11-20T09:34:23.982Z,7.10
2022-11-20T09:36:55.224Z,7.10
2022-11-20T09:39:47.788Z,7.20
2022-11-20T09:42:47.155Z,7.30
2022-11-20T09:45:25.678Z,7.40
2022-11-20T09:48:14.884Z,7.50
2022-11-20T09:51:16.300Z,7.60
2022-11-20T09:54:19.130Z,7.50
2022-11-20T09:57:03.143Z,7.60
2022-11-20T09:59:58.299Z,7.60
2022-11-20T10:03:03.811Z,7.70
2022-11-20T10:05:54.346Z,7.70
2022-11-20T10:08:24.300Z,7.80
2022-11-20T10:10:57.991Z,7.80
2022-11-20T10:13:50.687Z,7.80
2022-11-20T10:16:59.072Z,8.00
2022-11-20T10:20:00.072Z,8.00
2022-11-20T10:22:55.829Z,8.10
2022-11-20T10:25:46.283Z,8.20
2022-11-20T10:28:58.727Z,8.30
2022-11-20T10:31:57.950Z,8.40
2022-11-20T10:34:35.261Z,8.30
2022-11-20T10:37:32.912Z,8.40
2022-11-20T10:40:28.046Z,8.50
2022-11-20T10:43:14.729Z,8.70
2022-11-20T10:45:53.187Z,8.70
2022-11-20T10:48:25.111Z,8.70
2022-11-20T10:51:07.164Z,8.70
2022-11-20T10:54:02.626Z,8.80
2022-11-20T10:56:54.552Z,8.80
2022-11-20T10:59:34.150Z,8.80
2022-11-20T11:02:03.415Z,8.90
2022-11-20T11:04:43.810Z,8.80
2022-11-20T11:07:46.197Z,9.00
2022-11-20T11:10:23.788Z,9.00
2022-11-20T11:12:53.801Z,9.00
2022-11-20T11:15:41.715Z,8.90
2022-11-20T11:18:12.448Z,8.90
2022-11-20T11:20:51.888Z,9.00
2022-11-20T11:23:39.718Z,9.10
2022-11-20T11:26:21.056Z,9.00
2022-11-20T11:29:04.412Z,9.00
2022-11-20T11:31:36.033Z,8.90
2022-11-20T11:34:15.184Z,9.00
2022-11-20T11:36:49.832Z,9.00
2022-11-20T11:39:22.455Z,8.90
2022-11-20T11:41:50.441Z,8.80
2022-11-20T11:44:48.101Z,8.70
2022-11-20T11:47:31.870Z,8.70
2022-11-20T11:50:11.250Z,8.60
2022-11-20T11:52:53.255Z,8.50
2022-11-20T11:55:41.305Z,8.60
2022-11-20T11:58:35.267Z,8.50
2022-11-20T12:01:32.944Z,8.40
2022-11-20T12:04:14.603Z,8.30
2022-11-20T12:06:46.908Z,8.30
2022-11-20T12:09:15.252Z,8.30
2022-11-20T12:12:16.188Z,8.20
2022-11-20T12:14:46.326Z,8.20
2022-11-20T12:17:16.580Z,8.20
2022-11-20T12:19:48.244Z,8.20
2022-11-20T12:22:50.567Z,8.10
2022-11-20T12:25:40.356Z,8.10
2022-11-20T12:28:20.998Z,8.10
2022-11-20T12:31:15.416Z,8.00
2022-11-20T12:34:09.457Z,8.10
2022-11-20T12:36:57.237Z,8.10
2022-11-20T12:39:36.563Z,8.00
2022-11-20T12:43:02.672Z,8.10
2022-11-20T12:45:51.998Z,8.10
2022-11-20T12:48:20.970Z,8.10
2022-11-20T12:51:13.854Z,8.10
2022-11-20T12:53:55.072Z,8.10
2022-11-20T12:56:51.481Z,8.20
2022-11-20T12:59:25.573Z,8.20
2022-11-20T13:02:19.879Z,8.10
2022-11-20T13:05:50.624Z,8.20
2022-11-20T13:08:22.279Z,8.30
2022-11-20T13:11:14.902Z,8.30
2022-11-20T13:14:02.744Z,8.30
2022-11-20T13:17:04.709Z,8.30
2022-11-20T13:19:37.314Z,8.10
2022-11-20T13:22:31.507Z,8.00
2022-11-20T13:25:26.880Z,7.90
2022-11-20T13:27:57.789Z,8.00
2022-11-20T13:30:31.687Z,8.00
2022-11-20T13:33:02.034Z,8.00
2022-11-20T13:35:36.177Z,8.00
2022-11-20T13:38:10.556Z,7.90
2022-11-20T13:40:51.496Z,8.00
2022-11-20T13:43:30.428Z,7.90
2022-11-20T13:45:58.285Z,7.90
2022-11-20T13:48:37.207Z,7.90
2022-11-20T13:51:16.250Z,8.00
2022-11-20T13:54:00.556Z,7.90
2022-11-20T13:56:35.761Z,8.00
2022-11-20T13:59:23.753Z,8.00
2022-11-20T14:01:59.581Z,8.00
2022-11-20T14:04:33.803Z,8.00
2022-11-20T14:07:02.126Z,8.00
2022-11-20T14:09:37.185Z,8.10
2022-11-20T14:12:20.176Z,8.10
2022-11-20T14:14:54.201Z,8.10
2022-11-20T14:17:30.851Z,8.10
2022-11-20T14:20:16.534Z,8.10
2022-11-20T14:22:57.784Z,8.10
2022-11-20T14:25:31.912Z,8.20
2022-11-20T14:28:02.057Z,8.20
2022-11-20T14:30:47.795Z,8.20
2022-11-20T14:33:21.070Z,8.20
2022-11-20T14:36:00.825Z,8.10
2022-11-20T14:38:32.708Z,8.20
2022-11-20T14:41:22.281Z,8.20
2022-11-20T14:43:57.992Z,8.20
2022-11-20T14:46:28.421Z,8.20
2022-11-20T14:48:58.163Z,8.20
2022-11-20T14:51:44.313Z,8.20
2022-11-20T14:54:27.171Z,8.20
2022-11-20T14:56:58.331Z,8.30
2022-11-20T14:59:29.261Z,8.30
2022-11-20T15:02:11.598Z,8.40
2022-11-20T15:04:57.830Z,8.40
2022-11-20T15:07:31.461Z,8.50
2022-11-20T15:10:07.310Z,8.50
2022-11-20T15:12:39.824Z,8.60
2022-11-20T15:15:13.459Z,8.60
2022-11-20T15:17:42.098Z,8.60
2022-11-20T15:20:21.435Z,8.70
2022-11-20T15:22:49.889Z,8.80
2022-11-20T15:25:25.917Z,8.80
2022-11-20T15:27:58.095Z,8.70
2022-11-20T15:30:26.094Z,8.70
2022-11-20T15:32:56.909Z,8.70
2022-11-20T15:35:23.864Z,8.80
2022-11-20T15:38:02.762Z,8.80
2022-11-20T15:45:21.174Z,8.80
2022-11-20T15:48:22.356Z,8.90
2022-11-20T15:51:01.540Z,9.00
2022-11-20T15:53:34.658Z,9.00
2022-11-20T15:56:03.704Z,9.00
2022-11-20T15:58:31.878Z,9.10
2022-11-20T16:00:59.094Z,9.10
2022-11-20T16:03:27.097Z,9.10
2022-11-20T16:05:54.028Z,9.10
2022-11-20T16:08:23.029Z,9.10
2022-11-20T16:10:50.121Z,9.30
2022-11-20T16:13:47.796Z,9.30
2022-11-20T16:16:36.929Z,9.40
2022-11-20T16:21:48.957Z,9.50
2022-11-20T16:24:17.145Z,9.70
2022-11-20T16:26:47.947Z,9.60
2022-11-20T16:29:15.242Z,9.60
2022-11-20T16:31:43.170Z,9.50
2022-11-20T16:34:40.612Z,9.60
2022-11-20T16:37:08.505Z,9.50
2022-11-20T16:39:36.356Z,9.50
2022-11-20T16:42:06.777Z,9.40
2022-11-20T16:47:20.670Z,9.60
2022-11-20T16:49:49.983Z,9.70
2022-11-20T16:52:20.708Z,9.60
2022-11-20T16:54:55.511Z,9.60
2022-11-20T16:57:27.896Z,9.60
2022-11-20T17:00:02.414Z,9.60
2022-11-20T17:02:32.968Z,9.70
2022-11-20T17:05:00.923Z,9.60
2022-11-20T17:07:30.996Z,9.60
2022-11-20T17:09:58.165Z,9.80
2022-11-20T17:12:25.143Z,9.80
2022-11-20T17:14:52.465Z,9.90
2022-11-20T17:17:22.527Z,9.90
2022-11-20T17:19:52.515Z,9.90
2022-11-20T17:22:19.641Z,10.00
2022-11-20T17:24:46.783Z,10.10
2022-11-20T17:27:14.787Z,10.10
2022-11-20T17:29:42.340Z,10.10
2022-11-20T17:32:09.295Z,10.00
2022-11-20T17:34:38.209Z,9.90
2022-11-20T17:37:11.488Z,9.90
2022-11-20T17:39:40.171Z,9.80
2022-11-20T17:42:26.649Z,9.70
2022-11-20T17:44:53.550Z,9.70
2022-11-20T17:47:21.919Z,9.60
2022-11-20T17:49:48.850Z,9.80
2022-11-20T17:52:16.825Z,9.90
2022-11-20T17:54:45.828Z,9.90
2022-11-20T17:57:31.191Z,9.80
2022-11-20T17:59:59.286Z,9.80
2022-11-20T18:02:26.118Z,9.70
2022-11-20T18:04:53.045Z,9.60
2022-11-20T18:07:27.003Z,9.50
2022-11-20T18:09:55.141Z,9.60
2022-11-20T18:12:23.010Z,9.50
2022-11-20T18:14:50.995Z,9.30
2022-11-20T18:17:20.010Z,9.20
2022-11-20T18:20:13.754Z,9.10
2022-11-20T18:22:38.303Z,9.20
2022-11-20T18:25:06.411Z,9.10
2022-11-20T18:27:35.836Z,9.20
2022-11-20T18:30:10.167Z,9.10
2022-11-20T18:32:51.641Z,9.20
2022-11-20T18:35:19.612Z,9.10
2022-11-20T18:37:48.821Z,9.20
2022-11-20T18:40:18.903Z,9.30
2022-11-20T18:43:13.696Z,9.30
2022-11-20T18:45:43.668Z,9.20
2022-11-20T18:48:12.887Z,9.20
2022-11-20T18:50:50.953Z,9.10
2022-11-20T18:53:18.573Z,8.90
2022-11-20T18:55:49.330Z,8.90
2022-11-20T19:02:30.850Z,9.00
2022-11-20T19:05:06.013Z,9.10
2022-11-20T19:07:34.133Z,9.10
2022-11-20T19:10:03.978Z,9.00
2022-11-20T19:13:02.668Z,8.90
2022-11-20T19:15:41.263Z,8.70
2022-11-20T19:18:11.432Z,8.80
2022-11-20T19:21:08.510Z,8.90
2022-11-20T19:23:37.318Z,8.90
2022-11-20T19:26:06.830Z,8.90
2022-11-20T19:28:35.938Z,8.80
2022-11-20T19:31:14.235Z,8.80
2022-11-20T19:33:42.783Z,8.60
2022-11-20T19:36:30.067Z,8.70
2022-11-20T19:39:10.174Z,8.60
2022-11-20T19:41:48.855Z,8.60
2022-11-20T19:44:20.400Z,8.60
2022-11-20T19:46:48.693Z,8.50
2022-11-20T19:49:20.538Z,8.60
2022-11-20T19:51:59.609Z,8.60
2022-11-20T19:54:26.970Z,8.50
2022-11-20T19:56:59.923Z,8.60
2022-11-20T19:59:27.210Z,8.50
2022-11-20T20:01:54.951Z,8.60
2022-11-20T20:04:48.588Z,8.50
2022-11-20T20:07:19.613Z,8.60
2022-11-20T20:09:48.768Z,8.50
2022-11-20T20:12:19.948Z,8.50
2022-11-20T20:14:52.152Z,8.40
2022-11-20T20:17:45.010Z,8.30
2022-11-20T20:20:16.474Z,8.40
2022-11-20T20:22:44.532Z,8.50
2022-11-20T20:25:36.072Z,8.60
2022-11-20T20:32:16.968Z,8.40
2022-11-20T20:35:46.889Z,8.30
2022-11-20T20:38:33.799Z,8.20
2022-11-20T20:41:06.867Z,8.10
2022-11-20T20:44:01.158Z,8.10
2022-11-20T20:46:30.987Z,7.90
2022-11-20T20:49:00.503Z,7.80
2022-11-20T20:51:42.532Z,7.80
2022-11-20T20:54:10.275Z,7.80
2022-11-20T20:56:41.643Z,7.90
2022-11-20T20:59:09.868Z,7.80
2022-11-20T21:01:37.904Z,7.80
2022-11-20T21:04:06.035Z,7.70
2022-11-20T21:06:35.979Z,7.60
2022-11-20T21:09:04.919Z,7.60
2022-11-20T21:11:32.788Z,7.60
2022-11-20T21:13:59.724Z,7.60
2022-11-20T21:16:27.712Z,7.70
2022-11-20T21:18:54.626Z,7.70
2022-11-20T21:21:40.109Z,7.70
2022-11-20T21:24:08.309Z,7.70
2022-11-20T21:26:38.274Z,7.70
2022-11-20T21:29:05.573Z,7.60
2022-11-20T21:31:33.460Z,7.60
2022-11-20T21:34:07.326Z,7.60
2022-11-20T21:36:35.316Z,7.60
2022-11-20T21:39:31.356Z,7.70
2022-11-20T21:42:01.010Z,7.60
2022-11-20T21:44:32.315Z,7.70
2022-11-20T21:46:59.566Z,7.60
2022-11-20T21:49:27.562Z,7.60
2022-11-20T21:51:54.611Z,7.60
2022-11-20T21:54:25.105Z,7.60
2022-11-20T21:56:53.185Z,7.60
2022-11-20T21:59:20.601Z,7.60
2022-11-20T22:01:54.403Z,7.70
2022-11-20T22:07:09.138Z,7.80
2022-11-20T22:09:36.455Z,7.80
2022-11-20T22:12:03.785Z,7.90
2022-11-20T22:14:30.809Z,7.80
2022-11-20T22:16:58.738Z,7.90
2022-11-20T22:19:25.999Z,7.90
2022-11-20T22:21:53.168Z,7.90
2022-11-20T22:24:22.521Z,7.80
2022-11-20T22:26:50.349Z,7.80
2022-11-20T22:29:21.446Z,7.70
2022-11-20T22:31:51.004Z,7.70
2022-11-20T22:34:18.118Z,7.70
2022-11-20T22:36:47.505Z,7.80
2022-11-20T22:39:15.968Z,7.80
2022-11-20T22:41:45.123Z,7.80
2022-11-20T22:44:14.406Z,7.80
2022-11-20T22:46:42.565Z,7.90
2022-11-20T22:49:10.016Z,7.80
2022-11-20T22:51:40.006Z,7.80
2022-11-20T22:54:07.164Z,7.70
2022-11-20T22:56:34.913Z,7.70
2022-11-20T22:59:01.942Z,7.70
2022-11-20T23:01:30.985Z,7.70
2022-11-20T23:04:04.354Z,7.70
2022-11-20T23:06:35.868Z,7.80
2022-11-20T23:09:04.308Z,7.90
2022-11-20T23:11:32.556Z,8.00
2022-11-20T23:14:15.294Z,8.00
2022-11-20T23:16:45.057Z,8.00
2022-11-20T23:19:14.844Z,8.10
2022-11-20T23:21:42.955Z,8.00
2022-11-20T23:24:18.497Z,8.10
2022-11-20T23:26:48.077Z,8.10
2022-11-20T23:29:17.056Z,8.00
2022-11-20T23:31:44.115Z,8.10
2022-11-20T23:34:11.937Z,8.10
2022-11-20T23:36:38.986Z,8.10
2022-11-20T23:39:06.351Z,8.20
2022-11-20T23:41:34.791Z,8.10
2022-11-20T23:44:01.696Z,8.10
2022-11-20T23:46:29.300Z,8.00
2022-11-20T23:48:56.431Z,8.00
2022-11-20T23:51:24.362Z,7.90
2022-11-20T23:53:58.305Z,7.80
2022-11-20T23:56:28.404Z,7.80
2022-11-20T23:58:55.404Z,7.60
